createdAt,value
2022-10-17T00:01:22.657Z,9.50
2022-10-17T00:03:50.975Z,9.70
2022-10-17T00:06:18.640Z,8.50
2022-10-17T00:08:47.047Z,8.20
2022-10-17T00:11:22.685Z,9.30
2022-10-17T00:13:55.543Z,8.77
2022-10-17T00:16:37.378Z,7.97
2022-10-17T00:19:07.614Z,8.67
2022-10-17T00:21:35.313Z,9.37
2022-10-17T00:24:02.979Z,8.57
2022-10-17T00:26:30.657Z,9.20
2022-10-17T00:28:58.489Z,8.80
2022-10-17T00:31:26.474Z,9.17
2022-10-17T00:33:54.662Z,8.90
2022-10-17T00:36:26.719Z,8.73
2022-10-17T00:38:59.534Z,9.33
2022-10-17T00:41:34.212Z,9.13
2022-10-17T00:44:30.244Z,8.30
2022-10-17T00:47:06.564Z,9.30
2022-10-17T00:49:39.433Z,11.57
2022-10-17T00:52:24.928Z,10.70
2022-10-17T00:55:31.382Z,10.13
2022-10-17T00:58:05.547Z,9.17
2022-10-17T01:00:34.698Z,10.10
2022-10-17T01:03:02.554Z,9.97
2022-10-17T01:05:34.666Z,9.00
2022-10-17T01:08:04.323Z,9.77
2022-10-17T01:11:21.835Z,10.00
2022-10-17T01:14:05.232Z,10.20
2022-10-17T01:17:16.307Z,10.07
2022-10-17T01:20:32.705Z,9.40
2022-10-17T01:23:28.144Z,8.90
2022-10-17T01:26:31.991Z,9.20
2022-10-17T01:29:47.354Z,10.93
2022-10-17T01:32:31.221Z,10.43
2022-10-17T01:35:28.058Z,10.70
2022-10-17T01:38:19.377Z,9.60
2022-10-17T01:41:19.993Z,9.83
2022-10-17T01:44:09.253Z,9.40
2022-10-17T01:46:49.953Z,10.13
2022-10-17T01:49:29.221Z,10.30
2022-10-17T01:52:11.592Z,10.90
2022-10-17T01:55:08.313Z,9.87
2022-10-17T01:58:04.288Z,10.70
2022-10-17T02:00:37.739Z,11.40
2022-10-17T02:03:15.730Z,10.77
2022-10-17T02:05:46.031Z,8.20
2022-10-17T02:08:14.861Z,9.20
2022-10-17T02:11:13.417Z,8.77
2022-10-17T02:14:19.842Z,9.07
2022-10-17T02:17:19.161Z,10.10
2022-10-17T02:20:40.803Z,9.87
2022-10-17T02:23:22.064Z,9.37
2022-10-17T02:26:20.967Z,9.60
2022-10-17T02:29:30.750Z,8.57
2022-10-17T02:32:17.955Z,8.23
2022-10-17T02:34:55.632Z,8.80
2022-10-17T02:37:31.721Z,8.90
2022-10-17T02:40:03.435Z,9.87
2022-10-17T02:42:33.307Z,9.67
2022-10-17T02:45:05.785Z,9.10
2022-10-17T02:48:01.092Z,10.00
2022-10-17T02:51:36.017Z,9.37
2022-10-17T02:54:27.775Z,8.80
2022-10-17T02:57:30.513Z,9.93
2022-10-17T03:00:04.070Z,9.70
2022-10-17T03:02:50.151Z,8.90
2022-10-17T03:05:28.542Z,9.97
2022-10-17T03:07:57.473Z,9.43
2022-10-17T03:10:25.811Z,9.47
2022-10-17T03:12:53.530Z,10.27
2022-10-17T03:15:21.693Z,9.17
2022-10-17T03:17:50.148Z,9.27
2022-10-17T03:20:20.140Z,10.50
2022-10-17T03:22:49.637Z,10.60
2022-10-17T03:25:17.873Z,9.87
2022-10-17T03:27:48.964Z,8.67
2022-10-17T03:30:16.922Z,9.50
2022-10-17T03:32:44.668Z,9.43
2022-10-17T03:35:15.042Z,9.13
2022-10-17T03:37:45.999Z,8.03
2022-10-17T03:40:13.994Z,8.73
2022-10-17T03:42:41.631Z,9.90
2022-10-17T03:45:10.140Z,9.37
2022-10-17T03:47:38.418Z,10.40
2022-10-17T03:50:07.751Z,10.27
2022-10-17T03:52:37.863Z,10.40
2022-10-17T03:55:06.662Z,10.80
2022-10-17T03:57:37.090Z,10.90
2022-10-17T04:00:08.061Z,11.90
2022-10-17T04:02:42.072Z,13.10
2022-10-17T04:05:15.991Z,11.10
2022-10-17T04:07:43.717Z,11.97
2022-10-17T04:10:13.256Z,11.50
2022-10-17T04:12:40.947Z,11.20
2022-10-17T04:15:10.572Z,10.57
2022-10-17T04:17:39.408Z,11.47
2022-10-17T04:20:09.158Z,10.53
2022-10-17T04:22:37.825Z,10.73
2022-10-17T04:25:07.009Z,11.20
2022-10-17T04:27:37.077Z,10.13
2022-10-17T04:30:05.746Z,9.17
2022-10-17T04:32:41.310Z,10.80
2022-10-17T04:35:20.731Z,10.63
2022-10-17T04:37:54.074Z,10.50
2022-10-17T04:40:22.303Z,10.30
2022-10-17T04:42:52.609Z,11.57
2022-10-17T04:45:23.185Z,10.17
2022-10-17T04:47:56.038Z,11.10
2022-10-17T04:50:23.749Z,11.00
2022-10-17T04:53:11.178Z,11.13
2022-10-17T04:55:39.605Z,10.07
2022-10-17T04:58:07.565Z,9.77
2022-10-17T05:00:37.275Z,11.03
2022-10-17T05:03:14.210Z,11.03
2022-10-17T05:05:43.150Z,11.03
2022-10-17T05:08:13.590Z,11.20
2022-10-17T05:10:46.357Z,11.17
2022-10-17T05:13:15.301Z,11.67
2022-10-17T05:15:42.993Z,10.53
2022-10-17T05:18:12.244Z,11.17
2022-10-17T05:20:42.107Z,11.63
2022-10-17T05:23:09.809Z,10.07
2022-10-17T05:25:41.579Z,12.20
2022-10-17T05:28:09.522Z,11.00
2022-10-17T05:30:38.777Z,11.17
2022-10-17T05:33:09.756Z,11.10
2022-10-17T05:35:37.837Z,12.03
2022-10-17T05:38:06.361Z,11.60
2022-10-17T05:40:35.750Z,11.80
2022-10-17T05:43:04.594Z,10.10
2022-10-17T05:45:32.829Z,10.10
2022-10-17T05:48:01.251Z,9.80
2022-10-17T05:50:29.408Z,10.43
2022-10-17T05:53:11.911Z,9.40
2022-10-17T05:55:45.038Z,10.37
2022-10-17T05:58:21.785Z,9.93
2022-10-17T06:01:07.131Z,9.37
2022-10-17T06:03:37.102Z,11.10
2022-10-17T06:06:14.446Z,10.03
2022-10-17T06:08:45.677Z,12.23
2022-10-17T06:11:17.020Z,10.90
2022-10-17T06:13:44.820Z,11.07
2022-10-17T06:16:18.464Z,10.80
2022-10-17T06:18:46.206Z,10.90
2022-10-17T06:21:22.547Z,11.60
2022-10-17T06:23:53.205Z,11.30
2022-10-17T06:26:35.244Z,10.03
2022-10-17T06:29:04.493Z,12.33
2022-10-17T06:31:36.589Z,9.83
2022-10-17T06:34:05.442Z,10.27
2022-10-17T06:36:33.174Z,10.10
2022-10-17T06:39:02.718Z,9.70
2022-10-17T06:41:36.936Z,9.93
2022-10-17T06:44:11.318Z,9.70
2022-10-17T06:46:50.095Z,9.70
2022-10-17T06:49:18.940Z,9.40
2022-10-17T06:51:59.261Z,9.70
2022-10-17T06:54:47.208Z,9.80
2022-10-17T06:57:32.243Z,9.43
2022-10-17T07:00:23.466Z,8.10
2022-10-17T07:02:55.171Z,8.50
2022-10-17T07:05:22.936Z,8.30
2022-10-17T07:07:52.035Z,7.67
2022-10-17T07:10:20.854Z,7.60
2022-10-17T07:12:48.732Z,7.57
2022-10-17T07:15:16.827Z,8.20
2022-10-17T07:17:53.050Z,7.97
2022-10-17T07:20:20.889Z,7.80
2022-10-17T07:22:48.768Z,7.30
2022-10-17T07:25:17.078Z,7.60
2022-10-17T07:27:52.742Z,7.90
2022-10-17T07:30:23.455Z,7.17
2022-10-17T07:33:13.681Z,6.77
2022-10-17T07:35:41.358Z,7.03
2022-10-17T07:38:09.776Z,6.83
2022-10-17T07:40:38.214Z,6.03
2022-10-17T07:43:05.984Z,6.43
2022-10-17T07:45:33.869Z,6.77
2022-10-17T07:48:01.457Z,5.80
2022-10-17T07:50:31.869Z,6.70
2022-10-17T07:52:59.522Z,5.60
2022-10-17T07:55:27.214Z,5.70
2022-10-17T07:57:54.968Z,4.90
2022-10-17T08:00:22.675Z,5.20
2022-10-17T08:02:50.286Z,5.83
2022-10-17T08:05:18.132Z,5.60
2022-10-17T08:07:45.744Z,5.20
2022-10-17T08:10:17.900Z,5.07
2022-10-17T08:12:45.889Z,4.27
2022-10-17T08:15:13.849Z,5.00
2022-10-17T08:17:41.424Z,4.57
2022-10-17T08:20:11.237Z,4.67
2022-10-17T08:22:39.363Z,4.80
2022-10-17T08:25:08.724Z,4.20
2022-10-17T08:27:36.420Z,4.37
2022-10-17T08:30:05.357Z,4.10
2022-10-17T08:32:33.205Z,4.10
2022-10-17T08:35:02.618Z,5.30
2022-10-17T08:37:31.770Z,4.30
2022-10-17T08:39:59.724Z,5.13
2022-10-17T08:43:24.099Z,4.20
2022-10-17T08:46:06.703Z,3.87
2022-10-17T08:48:47.918Z,4.07
2022-10-17T08:51:37.325Z,3.57
2022-10-17T08:54:43.171Z,4.00
2022-10-17T08:57:18.054Z,3.93
2022-10-17T08:59:52.779Z,4.17
2022-10-17T09:03:15.887Z,3.90
2022-10-17T09:06:30.902Z,4.60
2022-10-17T09:10:09.664Z,4.07
2022-10-17T09:13:14.917Z,4.77
2022-10-17T09:16:15.327Z,4.20
2022-10-17T09:19:12.673Z,5.00
2022-10-17T09:21:58.397Z,4.50
2022-10-17T09:24:48.353Z,4.10
2022-10-17T09:27:33.913Z,4.70
2022-10-17T09:30:46.007Z,4.90
2022-10-17T09:33:53.856Z,4.13
2022-10-17T09:36:37.038Z,4.53
2022-10-17T09:39:20.164Z,4.53
2022-10-17T09:42:03.257Z,4.73
2022-10-17T09:45:26.955Z,3.73
2022-10-17T09:48:05.433Z,5.10
2022-10-17T09:50:36.598Z,3.80
2022-10-17T09:53:38.057Z,4.53
2022-10-17T09:56:18.792Z,4.50
2022-10-17T09:58:57.249Z,4.40
2022-10-17T10:01:32.092Z,4.10
2022-10-17T10:04:16.557Z,3.73
2022-10-17T10:07:12.505Z,3.67
2022-10-17T10:09:41.163Z,4.43
2022-10-17T10:12:33.659Z,5.47
2022-10-17T10:15:01.907Z,4.70
2022-10-17T10:17:42.929Z,3.90
2022-10-17T10:20:38.024Z,3.90
2022-10-17T10:23:22.231Z,4.70
2022-10-17T10:26:04.358Z,4.17
2022-10-17T10:28:37.479Z,4.77
2022-10-17T10:31:10.303Z,4.97
2022-10-17T10:33:48.153Z,4.40
2022-10-17T10:36:21.911Z,5.90
2022-10-17T10:39:01.305Z,4.27
2022-10-17T10:41:48.824Z,5.00
2022-10-17T10:44:24.869Z,5.43
2022-10-17T10:47:31.920Z,4.33
2022-10-17T10:50:33.140Z,4.80
2022-10-17T10:53:36.758Z,4.23
2022-10-17T10:56:44.216Z,4.43
2022-10-17T10:59:36.915Z,4.87
2022-10-17T11:02:47.328Z,4.70
2022-10-17T11:05:53.559Z,4.03
2022-10-17T11:08:44.455Z,3.80
2022-10-17T11:11:38.841Z,5.30
2022-10-17T11:14:33.060Z,3.70
2022-10-17T11:17:39.808Z,4.33
2022-10-17T11:20:45.008Z,4.87
2022-10-17T11:23:48.009Z,4.37
2022-10-17T11:26:35.419Z,4.93
2022-10-17T11:29:09.234Z,5.33
2022-10-17T11:31:53.936Z,5.60
2022-10-17T11:34:33.503Z,5.50
2022-10-17T11:37:22.000Z,5.27
2022-10-17T11:40:02.576Z,5.57
2022-10-17T11:42:46.813Z,4.50
2022-10-17T11:45:23.693Z,4.53
2022-10-17T11:48:12.665Z,5.20
2022-10-17T11:54:33.260Z,5.07
2022-10-17T11:57:56.731Z,6.13
2022-10-17T12:01:12.292Z,4.67
2022-10-17T12:04:14.114Z,5.40
2022-10-17T12:07:17.800Z,4.90
2022-10-17T12:10:52.514Z,5.20
2022-10-17T12:13:49.816Z,5.57
2022-10-17T12:16:20.379Z,5.00
2022-10-17T12:19:11.465Z,5.17
2022-10-17T12:22:26.264Z,5.03
2022-10-17T12:25:04.625Z,5.40
2022-10-17T12:27:48.565Z,4.53
2022-10-17T12:30:27.774Z,4.53
2022-10-17T12:33:12.720Z,4.67
2022-10-17T12:35:40.766Z,5.23
2022-10-17T12:38:28.404Z,5.47
2022-10-17T12:40:58.856Z,4.80
2022-10-17T12:43:29.386Z,5.17
2022-10-17T12:46:03.771Z,5.17
2022-10-17T12:48:37.355Z,4.90
2022-10-17T12:51:37.971Z,5.60
2022-10-17T12:54:16.764Z,5.40
2022-10-17T12:56:50.897Z,5.37
2022-10-17T12:59:30.294Z,5.00
2022-10-17T13:02:03.768Z,5.20
2022-10-17T13:04:36.338Z,4.50
2022-10-17T13:07:04.992Z,4.97
2022-10-17T13:09:42.831Z,6.03
2022-10-17T13:12:25.380Z,5.53
2022-10-17T13:14:55.817Z,6.03
2022-10-17T13:17:30.964Z,5.70
2022-10-17T13:19:59.363Z,5.50
2022-10-17T13:22:32.827Z,5.50
2022-10-17T13:25:21.139Z,5.00
2022-10-17T13:27:53.957Z,5.50
2022-10-17T13:30:34.590Z,5.87
2022-10-17T13:33:03.897Z,5.70
2022-10-17T13:38:34.804Z,5.10
2022-10-17T13:41:34.919Z,5.70
2022-10-17T13:44:32.211Z,5.40
2022-10-17T13:47:00.272Z,5.10
2022-10-17T13:49:43.244Z,5.23
2022-10-17T13:52:25.309Z,4.90
2022-10-17T13:54:54.304Z,5.60
2022-10-17T13:57:31.993Z,5.13
2022-10-17T14:00:21.928Z,6.13
2022-10-17T14:02:49.816Z,4.93
2022-10-17T14:05:23.416Z,6.50
2022-10-17T14:08:22.738Z,6.13
2022-10-17T14:10:49.907Z,5.20
2022-10-17T14:13:36.321Z,5.77
2022-10-17T14:16:05.643Z,5.90
2022-10-17T14:18:38.998Z,4.90
2022-10-17T14:24:22.317Z,5.13
2022-10-17T14:27:01.621Z,5.03
2022-10-17T14:29:51.911Z,4.77
2022-10-17T14:32:22.862Z,5.00
2022-10-17T14:35:05.496Z,4.50
2022-10-17T14:37:54.190Z,4.37
2022-10-17T14:40:29.352Z,4.90
2022-10-17T14:43:08.350Z,5.70
2022-10-17T14:45:40.641Z,4.80
2022-10-17T14:48:24.073Z,4.93
2022-10-17T14:51:19.934Z,4.77
2022-10-17T14:54:30.370Z,4.00
2022-10-17T14:56:58.060Z,4.87
2022-10-17T15:02:15.554Z,4.97
2022-10-17T15:04:43.213Z,4.37
2022-10-17T15:07:19.200Z,4.50
2022-10-17T15:09:52.888Z,4.80
2022-10-17T15:12:25.626Z,4.43
2022-10-17T15:14:54.554Z,5.10
2022-10-17T15:17:31.655Z,4.70
2022-10-17T15:19:59.440Z,5.10
2022-10-17T15:22:27.588Z,5.17
2022-10-17T15:24:55.474Z,5.00
2022-10-17T15:27:26.586Z,5.40
2022-10-17T15:29:54.217Z,5.20
2022-10-17T15:32:21.913Z,5.33
2022-10-17T15:34:49.819Z,6.20
2022-10-17T15:37:26.208Z,6.37
2022-10-17T15:39:55.857Z,5.47
2022-10-17T15:42:30.559Z,6.60
2022-10-17T15:44:59.298Z,6.47
2022-10-17T15:47:34.104Z,6.70
2022-10-17T15:50:04.168Z,7.30
2022-10-17T15:52:32.124Z,7.80
2022-10-17T15:55:02.518Z,8.20
2022-10-17T15:57:41.463Z,7.83
2022-10-17T16:00:23.768Z,8.73
2022-10-17T16:02:51.787Z,6.90
2022-10-17T16:05:29.281Z,6.57
2022-10-17T16:07:58.036Z,6.73
2022-10-17T16:10:26.588Z,7.40
2022-10-17T16:12:55.423Z,7.07
2022-10-17T16:15:28.157Z,6.67
2022-10-17T16:18:00.568Z,7.27
2022-10-17T16:20:30.570Z,7.30
2022-10-17T16:23:00.605Z,7.50
2022-10-17T16:25:32.641Z,7.47
2022-10-17T16:28:04.255Z,7.00
2022-10-17T16:30:33.933Z,6.70
2022-10-17T16:33:01.654Z,7.70
2022-10-17T16:35:34.895Z,7.00
2022-10-17T16:38:08.468Z,6.47
2022-10-17T16:40:40.689Z,6.53
2022-10-17T16:43:15.003Z,7.30
2022-10-17T16:45:42.758Z,6.80
2022-10-17T16:48:12.285Z,7.00
2022-10-17T16:50:41.173Z,7.07
2022-10-17T16:53:08.909Z,7.47
2022-10-17T16:55:36.539Z,7.33
2022-10-17T16:58:04.608Z,7.20
2022-10-17T17:00:32.360Z,8.90
2022-10-17T17:03:00.056Z,8.57
2022-10-17T17:05:28.431Z,9.63
2022-10-17T17:07:56.273Z,8.90
2022-10-17T17:10:24.362Z,9.23
2022-10-17T17:12:52.085Z,9.23
2022-10-17T17:15:19.626Z,9.97
2022-10-17T17:17:53.606Z,9.30
2022-10-17T17:20:26.833Z,9.13
2022-10-17T17:22:54.697Z,9.40
2022-10-17T17:25:23.572Z,9.40
2022-10-17T17:27:51.970Z,7.20
2022-10-17T17:30:20.401Z,7.83
2022-10-17T17:32:48.497Z,7.03
2022-10-17T17:35:16.478Z,7.97
2022-10-17T17:37:44.193Z,6.60
2022-10-17T17:40:12.642Z,6.43
2022-10-17T17:42:40.292Z,7.10
2022-10-17T17:45:09.389Z,7.20
2022-10-17T17:47:37.049Z,7.10
2022-10-17T17:50:05.611Z,6.70
2022-10-17T17:52:33.600Z,6.30
2022-10-17T17:55:01.444Z,7.00
2022-10-17T17:57:30.717Z,7.10
2022-10-17T17:59:58.384Z,7.57
2022-10-17T18:02:26.240Z,7.87
2022-10-17T18:04:53.904Z,9.03
2022-10-17T18:07:22.031Z,8.20
2022-10-17T18:09:51.244Z,8.53
2022-10-17T18:12:19.035Z,8.90
2022-10-17T18:14:47.845Z,8.77
2022-10-17T18:17:15.626Z,9.33
2022-10-17T18:19:43.944Z,8.70
2022-10-17T18:22:11.682Z,9.47
2022-10-17T18:24:39.452Z,8.13
2022-10-17T18:27:07.548Z,9.50
2022-10-17T18:29:35.390Z,11.00
2022-10-17T18:32:03.031Z,8.70
2022-10-17T18:34:30.810Z,9.87
2022-10-17T18:37:00.032Z,8.13
2022-10-17T18:39:27.823Z,8.60
2022-10-17T18:41:56.149Z,10.17
2022-10-17T18:44:24.456Z,8.80
2022-10-17T18:46:52.205Z,8.17
2022-10-17T18:49:25.167Z,9.60
2022-10-17T18:51:53.035Z,8.67
2022-10-17T18:54:22.408Z,10.33
2022-10-17T18:56:54.461Z,9.73
2022-10-17T18:59:23.048Z,10.90
2022-10-17T19:01:50.870Z,11.07
2022-10-17T19:04:18.838Z,10.73
2022-10-17T19:06:46.623Z,10.10
2022-10-17T19:09:16.283Z,11.00
2022-10-17T19:11:44.953Z,11.13
2022-10-17T19:14:14.062Z,9.70
2022-10-17T19:16:49.380Z,10.53
2022-10-17T19:19:24.887Z,10.80
2022-10-17T19:21:54.023Z,10.47
2022-10-17T19:24:28.131Z,9.70
2022-10-17T19:27:02.789Z,10.00
2022-10-17T19:29:34.388Z,11.00
2022-10-17T19:32:02.751Z,10.47
2022-10-17T19:34:30.363Z,9.53
2022-10-17T19:36:58.240Z,10.40
2022-10-17T19:39:26.745Z,8.80
2022-10-17T19:41:54.379Z,9.70
2022-10-17T19:44:22.068Z,10.67
2022-10-17T19:46:49.839Z,10.50
2022-10-17T19:49:18.396Z,10.37
2022-10-17T19:51:46.557Z,9.10
2022-10-17T19:54:18.527Z,10.07
2022-10-17T19:56:46.990Z,10.83
2022-10-17T19:59:19.033Z,10.60
2022-10-17T20:01:52.433Z,10.40
2022-10-17T20:04:21.969Z,10.13
2022-10-17T20:06:49.870Z,10.40
2022-10-17T20:09:17.641Z,9.60
2022-10-17T20:11:46.536Z,9.23
2022-10-17T20:14:14.320Z,10.00
2022-10-17T20:16:44.785Z,11.20
2022-10-17T20:19:14.127Z,10.20
2022-10-17T20:21:44.489Z,9.33
2022-10-17T20:24:17.487Z,8.17
2022-10-17T20:26:46.149Z,8.30
2022-10-17T20:29:21.370Z,9.10
2022-10-17T20:31:50.111Z,8.87
2022-10-17T20:34:19.828Z,8.80
2022-10-17T20:36:49.861Z,8.63
2022-10-17T20:39:21.209Z,9.37
2022-10-17T20:41:49.152Z,8.47
2022-10-17T20:44:16.971Z,8.87
2022-10-17T20:47:00.625Z,8.67
2022-10-17T20:49:29.285Z,8.13
2022-10-17T20:51:57.740Z,8.70
2022-10-17T20:54:27.778Z,7.23
2022-10-17T20:56:58.646Z,8.50
2022-10-17T20:59:29.033Z,8.50
2022-10-17T21:01:56.620Z,7.33
2022-10-17T21:07:11.974Z,6.67
2022-10-17T21:09:39.604Z,6.73
2022-10-17T21:12:07.193Z,6.70
2022-10-17T21:14:36.450Z,7.87
2022-10-17T21:17:05.398Z,6.20
2022-10-17T21:19:33.709Z,7.70
2022-10-17T21:22:01.745Z,7.03
2022-10-17T21:24:30.739Z,6.93
2022-10-17T21:26:58.911Z,6.90
2022-10-17T21:29:26.718Z,8.77
2022-10-17T21:31:54.431Z,7.17
2022-10-17T21:34:25.145Z,6.30
2022-10-17T21:36:53.535Z,6.97
2022-10-17T21:39:24.274Z,6.27
2022-10-17T21:41:53.658Z,7.10
2022-10-17T21:44:27.143Z,6.20
2022-10-17T21:46:56.301Z,6.73
2022-10-17T21:49:25.789Z,5.73
2022-10-17T21:51:54.375Z,6.67
2022-10-17T21:54:23.995Z,7.37
2022-10-17T21:56:52.792Z,6.50
2022-10-17T21:59:20.569Z,6.87
2022-10-17T22:01:48.328Z,5.80
2022-10-17T22:04:20.044Z,7.57
2022-10-17T22:06:53.378Z,6.40
2022-10-17T22:09:27.013Z,6.70
2022-10-17T22:11:57.827Z,7.03
2022-10-17T22:14:28.357Z,5.87
2022-10-17T22:16:56.620Z,7.83
2022-10-17T22:19:27.686Z,6.40
2022-10-17T22:21:55.915Z,7.10
2022-10-17T22:24:24.137Z,7.63
2022-10-17T22:26:52.615Z,7.63
2022-10-17T22:29:21.098Z,7.30
2022-10-17T22:31:49.065Z,8.00
2022-10-17T22:34:18.796Z,7.20
2022-10-17T22:36:48.872Z,7.00
2022-10-17T22:39:16.962Z,6.50
2022-10-17T22:41:44.582Z,6.47
2022-10-17T22:44:12.881Z,6.23
2022-10-17T22:46:40.640Z,6.60
2022-10-17T22:49:08.714Z,6.70
2022-10-17T22:51:36.392Z,6.90
2022-10-17T22:54:04.104Z,6.90
2022-10-17T22:56:32.002Z,6.80
2022-10-17T22:58:59.895Z,6.23
2022-10-17T23:01:27.563Z,6.20
2022-10-17T23:03:55.616Z,6.27
2022-10-17T23:06:23.870Z,6.20
2022-10-17T23:08:52.419Z,6.67
2022-10-17T23:11:21.030Z,6.10
2022-10-17T23:13:49.176Z,6.83
2022-10-17T23:16:17.350Z,6.20
2022-10-17T23:18:45.086Z,5.80
2022-10-17T23:21:12.821Z,5.30
2022-10-17T23:23:40.723Z,5.83
2022-10-17T23:26:14.194Z,5.60
2022-10-17T23:28:43.675Z,5.77
2022-10-17T23:31:22.594Z,5.43
2022-10-17T23:33:51.088Z,5.67
2022-10-17T23:36:21.386Z,5.70
2022-10-17T23:38:51.776Z,5.10
2022-10-17T23:41:22.075Z,5.40
2022-10-17T23:43:49.679Z,5.60
2022-10-17T23:46:18.028Z,5.70
2022-10-17T23:48:45.703Z,5.17
2022-10-17T23:51:13.609Z,4.80
2022-10-17T23:53:41.800Z,5.50
2022-10-17T23:56:11.599Z,4.50
2022-10-17T23:58:40.298Z,5.10
